Time;durP1;ratioP1;P1;durP2;ratioP2;P2;SDS_P1;SDS_P2;PMS_P1;PMS_P2;Temp;Humidity;BMP_temperature;BMP_pressure;BME280_temperature;BME280_humidity;BME280_pressure;Samples;Min_cycle;Max_cycle;Signal;HPM_P1;HPM_P2
2023/11/07 00:02:02;;;;;;;;;9.60;9.60;;;;;12.90;100.00;98364.66;6197153;28;96746;-63
2023/11/07 00:05:08;;;;;;;;;8.40;8.00;;;;;12.75;100.00;98362.56;6217256;28;96410;-64
2023/11/07 00:08:12;;;;;;;;;10.00;10.00;;;;;12.63;100.00;98369.94;6217300;28;96182;-64
2023/11/07 00:11:16;;;;;;;;;9.60;9.00;;;;;12.55;100.00;98362.25;6188547;28;96303;-64
2023/11/07 00:14:21;;;;;;;;;9.00;9.00;;;;;12.47;100.00;98370.75;6195967;28;98606;-64
2023/11/07 00:17:24;;;;;;;;;7.00;6.00;;;;;12.38;100.00;98381.16;6216660;28;96278;-64
2023/11/07 00:20:27;;;;;;;;;10.00;10.00;;;;;12.24;100.00;98387.94;6214978;28;96338;-63
2023/11/07 00:23:31;;;;;;;;;10.00;9.00;;;;;12.17;100.00;98397.28;6197708;28;97460;-64
2023/11/07 00:26:35;;;;;;;;;7.50;7.50;;;;;12.10;100.00;98403.66;6215991;28;96950;-65
2023/11/07 00:29:38;;;;;;;;;7.00;7.00;;;;;12.05;100.00;98398.16;6208022;28;96393;-65
2023/11/07 00:32:41;;;;;;;;;8.75;8.00;;;;;12.03;100.00;98400.28;6213308;28;96533;-65
2023/11/07 00:35:45;;;;;;;;;11.00;10.00;;;;;12.09;100.00;98404.72;6190413;28;96674;-64
2023/11/07 00:38:48;;;;;;;;;10.00;10.00;;;;;12.07;100.00;98403.34;6208775;28;96332;-65
2023/11/07 00:41:53;;;;;;;;;11.00;10.50;;;;;12.01;100.00;98402.41;6215409;28;97155;-65
2023/11/07 00:44:56;;;;;;;;;13.20;12.20;;;;;11.98;100.00;98402.06;6180563;28;97077;-64
2023/11/07 00:47:59;;;;;;;;;12.60;11.60;;;;;11.94;100.00;98400.91;6196946;28;96789;-64
2023/11/07 00:51:02;;;;;;;;;9.75;9.50;;;;;11.91;100.00;98396.81;6213370;28;97190;-65
2023/11/07 00:54:07;;;;;;;;;10.75;10.00;;;;;11.89;100.00;98398.13;6192052;28;98687;-64
2023/11/07 00:57:12;;;;;;;;;8.50;8.00;;;;;11.68;100.00;98384.19;6195598;28;96698;-64
2023/11/07 01:00:16;;;;;;;;;8.00;8.00;;;;;11.80;100.00;98396.88;6213724;28;96295;-63
2023/11/07 01:03:19;;;;;;;;;10.20;9.80;;;;;11.85;100.00;98399.66;6194572;28;96284;-64
2023/11/07 01:06:22;;;;;;;;;9.00;9.00;;;;;11.88;100.00;98394.59;6179644;28;97070;-64
2023/11/07 01:09:26;;;;;;;;;11.00;9.00;;;;;11.91;100.00;98406.81;6214868;28;96348;-63
2023/11/07 01:12:30;;;;;;;;;9.00;8.60;;;;;11.93;100.00;98405.50;6202115;28;96615;-64
2023/11/07 01:15:33;;;;;;;;;10.80;10.40;;;;;11.95;100.00;98406.09;6179133;28;96714;-64
2023/11/07 01:18:37;;;;;;;;;7.40;7.00;;;;;11.94;100.00;98403.63;6170514;28;98521;-64
2023/11/07 01:21:40;;;;;;;;;8.00;8.00;;;;;12.06;100.00;98413.31;6190212;28;96706;-65
2023/11/07 01:24:44;;;;;;;;;9.00;9.00;;;;;12.14;100.00;98407.50;6197792;28;96975;-64
2023/11/07 01:27:49;;;;;;;;;11.00;10.00;;;;;12.24;100.00;98403.34;6199366;28;96674;-64
2023/11/07 01:30:52;;;;;;;;;10.00;9.60;;;;;12.32;100.00;98398.34;6209305;28;96328;-65
2023/11/07 01:33:55;;;;;;;;;8.00;6.60;;;;;12.39;100.00;98401.72;6218239;28;96423;-64
2023/11/07 01:36:59;;;;;;;;;6.60;6.00;;;;;12.45;100.00;98391.81;6214585;28;96932;-65
2023/11/07 01:40:02;;;;;;;;;7.00;6.00;;;;;12.53;100.00;98394.09;6198272;28;97046;-65
2023/11/07 01:43:13;;;;;;;;;6.60;6.60;;;;;12.59;100.00;98402.06;6217943;28;96963;-64
2023/11/07 01:46:17;;;;;;;;;5.80;5.20;;;;;12.72;100.00;98403.59;6200960;28;96868;-66
2023/11/07 01:49:20;;;;;;;;;9.00;9.00;;;;;12.86;100.00;98402.19;6200310;28;96457;-64
2023/11/07 01:52:23;;;;;;;;;9.00;8.50;;;;;13.02;100.00;98411.34;6199444;28;96475;-64
2023/11/07 01:55:27;;;;;;;;;7.40;6.40;;;;;13.14;100.00;98405.88;6200146;28;96432;-66
2023/11/07 01:58:32;;;;;;;;;7.00;7.00;;;;;13.25;100.00;98399.50;6216960;28;96354;-64
2023/11/07 02:01:39;;;;;;;;;6.00;5.40;;;;;13.33;100.00;98397.22;6196752;28;96716;-71
2023/11/07 02:04:42;;;;;;;;;7.00;7.00;;;;;13.35;100.00;98388.81;6250227;22;96923;-65
2023/11/07 02:07:45;;;;;;;;;7.25;7.00;;;;;13.38;100.00;98399.16;6216780;28;96893;-65
2023/11/07 02:10:48;;;;;;;;;8.00;8.00;;;;;13.46;100.00;98387.88;6200069;28;96328;-65
2023/11/07 02:13:53;;;;;;;;;7.00;6.00;;;;;13.53;100.00;98396.63;6211633;28;96432;-66
2023/11/07 02:16:56;;;;;;;;;8.33;7.33;;;;;13.56;100.00;98401.53;6217535;28;96280;-65
2023/11/07 02:19:59;;;;;;;;;7.00;7.00;;;;;13.59;100.00;98395.59;6238563;28;96398;-65
2023/11/07 02:23:04;;;;;;;;;5.00;4.00;;;;;13.64;100.00;98402.97;6229656;28;96962;-65
2023/11/07 02:26:09;;;;;;;;;7.25;7.25;;;;;13.73;100.00;98399.56;6198926;28;96282;-65
2023/11/07 02:29:12;;;;;;;;;9.33;8.00;;;;;13.75;100.00;98412.88;6224558;28;96331;-65
2023/11/07 02:32:15;;;;;;;;;8.00;8.00;;;;;13.61;100.00;98406.19;6200579;28;98389;-65
2023/11/07 02:35:18;;;;;;;;;8.00;8.00;;;;;13.40;100.00;98413.25;6239639;28;96359;-65
2023/11/07 02:38:22;;;;;;;;;10.00;9.60;;;;;13.11;100.00;98417.16;6227774;28;97099;-65
2023/11/07 02:41:27;;;;;;;;;8.00;7.25;;;;;12.74;100.00;98409.59;6240614;28;96861;-65
2023/11/07 02:44:31;;;;;;;;;10.00;9.80;;;;;12.42;100.00;98419.31;6224843;28;96399;-65
2023/11/07 02:47:34;;;;;;;;;13.50;12.00;;;;;12.16;100.00;98420.78;6221242;28;96505;-64
2023/11/07 02:50:45;;;;;;;;;15.00;14.75;;;;;12.02;100.00;98422.16;6224790;28;96287;-65
2023/11/07 02:53:48;;;;;;;;;14.20;13.20;;;;;11.93;100.00;98437.91;6216631;28;98430;-65
2023/11/07 02:56:53;;;;;;;;;15.40;15.00;;;;;11.87;100.00;98435.38;6201642;28;98786;-65
2023/11/07 02:59:56;;;;;;;;;15.00;14.80;;;;;11.76;100.00;98437.03;6242284;28;97120;-64
2023/11/07 03:02:59;;;;;;;;;13.80;11.20;;;;;11.66;100.00;98434.09;6212974;28;97070;-65
2023/11/07 03:06:02;;;;;;;;;15.00;13.80;;;;;11.53;100.00;98420.91;6218558;28;98479;-65
2023/11/07 03:09:07;;;;;;;;;18.00;16.00;;;;;11.44;100.00;98428.53;6228803;28;96855;-65
2023/11/07 03:12:14;;;;;;;;;16.00;15.00;;;;;11.38;100.00;98424.09;6188080;28;98390;-67
2023/11/07 03:15:17;;;;;;;;;16.00;15.00;;;;;11.32;100.00;98416.13;6196125;28;96436;-67
2023/11/07 03:18:20;;;;;;;;;16.00;14.40;;;;;11.28;100.00;98416.59;6194105;28;97896;-66
2023/11/07 03:21:24;;;;;;;;;10.50;9.50;;;;;11.37;100.00;98419.75;6195250;28;98487;-67
2023/11/07 03:24:27;;;;;;;;;9.60;9.60;;;;;11.46;100.00;98428.28;6198124;28;96596;-67
2023/11/07 03:27:31;;;;;;;;;7.40;7.00;;;;;11.61;100.00;98423.22;6191459;28;96522;-66
2023/11/07 03:30:35;;;;;;;;;7.00;7.00;;;;;11.82;100.00;98428.00;6171512;28;96864;-67
2023/11/07 03:33:38;;;;;;;;;7.80;7.00;;;;;12.00;100.00;98430.50;6218529;28;99008;-67
2023/11/07 03:36:41;;;;;;;;;7.40;7.40;;;;;12.17;100.00;98427.00;6220927;28;98587;-67
2023/11/07 03:39:44;;;;;;;;;5.00;5.00;;;;;12.30;100.00;98424.81;6236562;28;97531;-67
2023/11/07 03:42:50;;;;;;;;;6.00;5.00;;;;;12.41;100.00;98417.72;6196015;28;96619;-66
2023/11/07 03:45:53;;;;;;;;;8.00;8.00;;;;;12.52;100.00;98422.19;6191062;28;96796;-67
2023/11/07 03:48:57;;;;;;;;;5.40;5.00;;;;;12.64;100.00;98424.84;6193156;28;97290;-67
2023/11/07 03:52:01;;;;;;;;;4.00;3.60;;;;;12.76;100.00;98429.06;6178344;28;98593;-67
2023/11/07 03:55:05;;;;;;;;;5.00;5.00;;;;;12.83;100.00;98427.03;6178088;28;100060;-67
2023/11/07 03:58:10;;;;;;;;;5.00;5.00;;;;;12.93;100.00;98427.19;6178044;28;99639;-67
2023/11/07 04:01:13;;;;;;;;;5.25;5.25;;;;;13.04;100.00;98441.69;6177224;28;98552;-68
2023/11/07 04:04:17;;;;;;;;;5.00;4.00;;;;;13.13;100.00;98436.72;6195284;28;96903;-68
2023/11/07 04:07:21;;;;;;;;;5.80;5.80;;;;;13.20;100.00;98434.63;6212177;28;96822;-67
2023/11/07 04:10:24;;;;;;;;;7.00;6.50;;;;;13.25;100.00;98437.41;6195291;28;96743;-67
2023/11/07 04:13:29;;;;;;;;;5.25;5.25;;;;;13.32;100.00;98443.47;6195067;28;97187;-67
2023/11/07 04:16:33;;;;;;;;;5.40;4.00;;;;;13.36;100.00;98439.19;6203668;28;96296;-67
2023/11/07 04:19:36;;;;;;;;;6.00;6.00;;;;;13.42;100.00;98440.91;6170707;28;96716;-66
2023/11/07 04:22:39;;;;;;;;;5.00;5.00;;;;;13.45;100.00;98437.69;6182901;28;99490;-63
2023/11/07 04:25:43;;;;;;;;;6.00;6.00;;;;;13.54;100.00;98441.59;6212741;28;96364;-63
2023/11/07 04:28:47;;;;;;;;;6.00;6.00;;;;;13.61;100.00;98436.00;6212756;28;97206;-63
2023/11/07 04:31:50;;;;;;;;;5.00;5.00;;;;;13.63;100.00;98423.84;6209415;28;96617;-63
2023/11/07 04:34:53;;;;;;;;;4.80;4.00;;;;;13.73;100.00;98432.06;6211736;28;97546;-63
2023/11/07 04:37:57;;;;;;;;;4.75;4.00;;;;;13.81;100.00;98436.25;6194456;28;98450;-64
2023/11/07 04:41:00;;;;;;;;;7.40;6.40;;;;;13.87;100.00;98435.22;6198214;28;97077;-63
2023/11/07 04:44:05;;;;;;;;;6.00;5.00;;;;;13.91;100.00;98439.06;6208376;28;96859;-64
2023/11/07 04:47:09;;;;;;;;;5.00;5.00;;;;;13.95;100.00;98437.47;6201808;28;97188;-63
2023/11/07 04:50:13;;;;;;;;;6.00;5.00;;;;;13.96;100.00;98439.13;6186589;28;96573;-63
2023/11/07 04:53:16;;;;;;;;;4.20;4.20;;;;;14.02;100.00;98438.13;6206984;28;97545;-64
2023/11/07 04:56:20;;;;;;;;;5.25;5.25;;;;;14.01;100.00;98431.06;6208328;28;96488;-64
2023/11/07 04:59:25;;;;;;;;;6.00;6.00;;;;;14.03;100.00;98439.72;6185924;28;96564;-64
2023/11/07 05:02:28;;;;;;;;;4.00;4.00;;;;;14.01;100.00;98439.19;6195539;28;96905;-64
2023/11/07 05:05:31;;;;;;;;;6.00;6.00;;;;;13.98;100.00;98436.13;6198667;28;96734;-63
2023/11/07 05:08:34;;;;;;;;;3.00;3.00;;;;;13.98;100.00;98441.56;6189438;28;98653;-64
2023/11/07 05:11:38;;;;;;;;;3.00;3.00;;;;;13.98;100.00;98439.66;6201555;28;96360;-63
2023/11/07 05:14:42;;;;;;;;;4.00;4.00;;;;;13.96;100.00;98436.41;6211929;28;96790;-63
2023/11/07 05:17:46;;;;;;;;;7.00;6.60;;;;;13.99;100.00;98432.38;6177479;28;98476;-63
2023/11/07 05:20:50;;;;;;;;;5.25;5.25;;;;;13.98;100.00;98431.53;6190271;28;96907;-63
2023/11/07 05:23:53;;;;;;;;;2.20;2.20;;;;;14.04;100.00;98433.25;6210151;28;96437;-63
2023/11/07 05:26:57;;;;;;;;;3.00;3.00;;;;;14.07;100.00;98421.91;6212647;28;96395;-64
2023/11/07 05:30:02;;;;;;;;;3.00;3.00;;;;;14.13;100.00;98433.59;6186678;28;97323;-64
2023/11/07 05:33:06;;;;;;;;;3.00;3.00;;;;;14.13;100.00;98433.59;6188632;28;97689;-63
2023/11/07 05:36:10;;;;;;;;;5.00;4.20;;;;;14.11;100.00;98435.75;6211479;28;96722;-63
2023/11/07 05:39:15;;;;;;;;;3.00;2.60;;;;;14.18;100.00;98449.91;6198101;28;96517;-63
2023/11/07 05:42:19;;;;;;;;;3.50;3.00;;;;;14.28;100.00;98464.41;6191500;28;96697;-63
2023/11/07 05:45:25;;;;;;;;;2.00;2.00;;;;;14.37;100.00;98464.78;6193014;28;96671;-64
2023/11/07 05:48:28;;;;;;;;;1.00;1.00;;;;;14.37;100.00;98480.25;6188458;28;96881;-64
2023/11/07 05:51:32;;;;;;;;;2.00;2.00;;;;;14.37;100.00;98482.97;6200232;28;96807;-64
2023/11/07 05:54:35;;;;;;;;;2.75;2.00;;;;;14.44;100.00;98492.53;6193117;28;99190;-64
2023/11/07 05:57:38;;;;;;;;;11.00;9.40;;;;;14.29;100.00;98495.88;6170283;28;98494;-63
2023/11/07 06:00:44;;;;;;;;;13.50;13.00;;;;;13.97;100.00;98494.97;6194379;28;96562;-63
2023/11/07 06:03:50;;;;;;;;;17.00;16.40;;;;;13.69;100.00;98493.25;6191658;28;97477;-64
2023/11/07 06:06:53;;;;;;;;;16.40;14.80;;;;;13.47;100.00;98500.53;6192949;28;96814;-64
2023/11/07 06:09:56;;;;;;;;;15.00;13.50;;;;;13.49;100.00;98501.09;6202778;28;96996;-64
2023/11/07 06:13:03;;;;;;;;;5.00;5.00;;;;;13.87;100.00;98498.38;6196070;28;98560;-64
2023/11/07 06:16:10;;;;;;;;;7.00;6.40;;;;;14.93;100.00;98501.38;6190774;28;96409;-63
2023/11/07 06:19:14;;;;;;;;;5.60;5.60;;;;;16.83;100.00;98501.75;6215497;28;96396;-64
2023/11/07 06:22:17;;;;;;;;;5.40;4.00;;;;;18.62;100.00;98509.19;6215338;28;96782;-64
2023/11/07 06:25:21;;;;;;;;;2.00;2.00;;;;;20.33;100.00;98518.81;6188664;28;98683;-65
2023/11/07 06:28:24;;;;;;;;;3.20;3.20;;;;;21.89;97.21;98534.66;6200932;28;96340;-64
2023/11/07 06:31:28;;;;;;;;;2.00;1.00;;;;;23.25;88.53;98530.91;6177090;28;98384;-64
2023/11/07 06:34:33;;;;;;;;;3.75;3.75;;;;;24.43;82.06;98533.78;6203116;28;97279;-65
2023/11/07 06:37:38;;;;;;;;;2.00;2.00;;;;;25.46;71.13;98533.81;6204864;28;97479;-65
2023/11/07 06:40:42;;;;;;;;;2.00;2.00;;;;;26.45;62.78;98542.75;6178982;28;96845;-65
2023/11/07 06:43:48;;;;;;;;;4.00;4.00;;;;;27.12;60.36;98541.84;6214419;28;97689;-67
2023/11/07 06:46:53;;;;;;;;;3.00;3.00;;;;;27.27;58.16;98532.88;6177250;28;96510;-67
2023/11/07 06:49:58;;;;;;;;;1.25;1.25;;;;;26.82;59.40;98548.56;6194242;28;96358;-68
2023/11/07 06:53:01;;;;;;;;;1.25;1.25;;;;;25.84;65.23;98553.25;6194042;28;96973;-68
2023/11/07 06:56:04;;;;;;;;;2.00;2.00;;;;;25.18;70.02;98545.53;6212582;28;96434;-68
2023/11/07 06:59:08;;;;;;;;;2.00;2.00;;;;;24.95;74.11;98562.25;6213796;28;96280;-67
2023/11/07 07:02:15;;;;;;;;;2.50;2.00;;;;;26.34;65.83;98562.84;6212189;28;96468;-68
2023/11/07 07:05:18;;;;;;;;;4.00;4.00;;;;;28.05;53.25;98557.84;6196691;28;96401;-68
2023/11/07 07:08:23;;;;;;;;;3.00;3.00;;;;;29.94;44.70;98562.47;6197419;28;96264;-68
2023/11/07 07:11:26;;;;;;;;;4.00;3.50;;;;;31.26;38.24;98567.25;6196638;28;96893;-68
2023/11/07 07:14:29;;;;;;;;;7.00;7.00;;;;;32.41;36.29;98566.25;6197249;28;96355;-68
2023/11/07 07:17:33;;;;;;;;;19.00;16.00;;;;;33.27;33.30;98567.22;6196278;28;98949;-68
2023/11/07 07:20:37;;;;;;;;;17.40;17.40;;;;;33.89;31.32;98568.34;6184131;28;96953;-68
2023/11/07 07:23:46;;;;;;;;;15.40;13.40;;;;;34.33;29.68;98568.41;6181528;28;96499;-68
2023/11/07 07:26:50;;;;;;;;;17.00;16.00;;;;;34.82;28.19;98574.78;6180817;28;96685;-67
2023/11/07 07:29:56;;;;;;;;;13.00;12.00;;;;;35.54;27.49;98580.38;6183867;28;96655;-68
2023/11/07 07:33:01;;;;;;;;;7.60;7.40;;;;;36.14;26.12;98586.22;6184866;28;96796;-68
2023/11/07 07:36:11;;;;;;;;;8.00;7.00;;;;;36.74;24.82;98582.66;6200266;28;96246;-68
2023/11/07 07:39:27;;;;;;;;;9.50;9.50;;;;;37.16;24.22;98584.59;6182014;28;96628;-68
2023/11/07 07:42:31;;;;;;;;;9.00;9.00;;;;;37.76;23.82;98590.00;6204597;28;96492;-68
2023/11/07 07:45:35;;;;;;;;;9.00;9.00;;;;;38.14;23.21;98576.91;6163605;28;98422;-68
2023/11/07 07:48:39;;;;;;;;;11.00;11.00;;;;;38.46;22.65;98582.34;6203537;28;96364;-67
2023/11/07 07:51:45;;;;;;;;;10.00;9.00;;;;;38.81;22.00;98584.03;6214291;28;96568;-67
2023/11/07 07:54:48;;;;;;;;;8.50;8.00;;;;;39.11;22.02;98586.97;6190923;28;96861;-67
2023/11/07 07:58:12;;;;;;;;;12.00;11.00;;;;;39.55;21.79;98588.88;6233991;28;96410;-67
2023/11/07 08:01:18;;;;;;;;;10.00;10.00;;;;;39.91;21.15;98585.63;6243385;28;96519;-68
2023/11/07 08:04:28;;;;;;;;;8.80;8.80;;;;;40.11;20.97;98584.50;6244935;28;96371;-68
2023/11/07 08:07:33;;;;;;;;;9.50;9.00;;;;;40.43;20.49;98586.84;6245252;28;96228;-68
2023/11/07 08:10:36;;;;;;;;;12.00;10.75;;;;;40.69;20.20;98582.41;6244884;28;96339;-67
2023/11/07 08:13:39;;;;;;;;;7.20;7.00;;;;;41.03;20.16;98583.00;6229057;28;96320;-67
2023/11/07 08:16:42;;;;;;;;;7.80;7.80;;;;;41.28;20.10;98579.69;6200482;28;96353;-68
2023/11/07 08:19:47;;;;;;;;;7.75;7.00;;;;;41.44;19.80;98595.94;6199042;28;98506;-68
2023/11/07 08:22:53;;;;;;;;;8.40;8.00;;;;;41.68;19.35;98594.66;6217241;28;97053;-68
2023/11/07 08:25:57;;;;;;;;;11.00;9.00;;;;;41.68;19.16;98594.66;6200143;28;96325;-67
2023/11/07 08:29:00;;;;;;;;;10.00;9.60;;;;;41.71;19.13;98607.94;6216950;28;96197;-68
2023/11/07 08:32:07;;;;;;;;;11.00;10.00;;;;;41.72;19.23;98606.69;6216626;28;96358;-68
2023/11/07 08:35:15;;;;;;;;;8.00;7.40;;;;;41.89;19.36;98605.53;6197298;28;97066;-68
2023/11/07 08:38:18;;;;;;;;;8.67;8.67;;;;;42.00;18.82;98593.97;6214052;28;96272;-68
2023/11/07 08:41:23;;;;;;;;;10.00;9.00;;;;;42.46;18.80;98620.44;6195102;28;96865;-68
2023/11/07 08:44:26;;;;;;;;;8.00;7.00;;;;;42.83;18.68;98619.13;6209622;28;96256;-69
2023/11/07 08:47:31;;;;;;;;;8.50;8.00;;;;;42.55;18.43;98620.63;6190199;28;97070;-68
2023/11/07 08:50:37;;;;;;;;;6.60;6.40;;;;;42.70;18.58;98614.19;6192668;28;96348;-68
2023/11/07 08:53:41;;;;;;;;;8.00;7.00;;;;;42.80;18.18;98620.81;6196842;28;96323;-69
2023/11/07 08:56:49;;;;;;;;;7.00;6.60;;;;;42.79;18.11;98616.38;6197946;28;96343;-69
2023/11/07 08:59:52;;;;;;;;;5.00;5.00;;;;;42.81;18.06;98613.09;6180858;28;98267;-69
2023/11/07 09:02:56;;;;;;;;;6.00;6.00;;;;;42.71;17.87;98612.16;6197095;28;96391;-68
2023/11/07 09:06:01;;;;;;;;;7.00;6.00;;;;;42.81;18.00;98607.44;6198464;28;96802;-68
2023/11/07 09:09:06;;;;;;;;;7.00;6.50;;;;;42.58;18.12;98595.00;6215931;28;96289;-69
2023/11/07 09:12:10;;;;;;;;;7.00;6.00;;;;;42.99;17.61;98613.44;6198991;28;97465;-69
2023/11/07 09:15:13;;;;;;;;;5.00;5.00;;;;;43.02;17.94;98606.84;6228514;28;96215;-68
2023/11/07 09:18:16;;;;;;;;;5.00;5.00;;;;;43.09;17.72;98615.22;6194549;28;98389;-69
2023/11/07 09:21:21;;;;;;;;;5.00;5.00;;;;;43.11;17.15;98607.03;6227412;28;96195;-69
2023/11/07 09:24:25;;;;;;;;;4.00;4.00;;;;;42.61;17.44;98608.31;6222267;28;96452;-69
2023/11/07 09:27:28;;;;;;;;;5.00;5.00;;;;;42.21;17.53;98606.84;6210339;28;96673;-68
2023/11/07 09:30:33;;;;;;;;;4.00;4.00;;;;;42.10;17.88;98612.75;6210626;28;96601;-69
2023/11/07 09:33:36;;;;;;;;;3.40;3.00;;;;;41.86;17.78;98617.75;6217120;28;97040;-69
2023/11/07 09:36:41;;;;;;;;;3.40;3.40;;;;;41.63;17.38;98611.34;6217945;28;96463;-69
2023/11/07 09:39:45;;;;;;;;;2.00;2.00;;;;;41.44;17.72;98607.28;6219186;28;96340;-68
2023/11/07 09:42:50;;;;;;;;;2.00;2.00;;;;;41.40;17.55;98617.84;6219415;28;96287;-69
2023/11/07 09:45:56;;;;;;;;;2.00;1.20;;;;;41.28;17.70;98610.81;6201182;28;96879;-68
2023/11/07 09:48:59;;;;;;;;;2.00;2.00;;;;;41.17;17.92;98617.91;6203384;28;96778;-68
2023/11/07 09:52:06;;;;;;;;;3.00;3.00;;;;;41.17;17.74;98610.22;6204183;28;96202;-68
2023/11/07 09:55:14;;;;;;;;;2.25;2.00;;;;;40.94;18.59;98615.88;6205357;28;96350;-68
2023/11/07 09:58:27;;;;;;;;;2.00;2.00;;;;;40.63;18.24;98601.88;6222449;28;96380;-68
2023/11/07 10:01:30;;;;;;;;;2.00;2.00;;;;;40.56;18.03;98612.47;6222911;28;96796;-68
2023/11/07 10:04:35;;;;;;;;;2.00;2.00;;;;;40.60;18.02;98597.06;6223369;28;96372;-67
2023/11/07 10:07:40;;;;;;;;;3.60;3.60;;;;;40.41;18.38;98606.25;6223524;28;96356;-69
2023/11/07 10:10:43;;;;;;;;;2.00;2.00;;;;;40.37;18.64;98602.69;6189595;28;97004;-68
2023/11/07 10:14:00;;;;;;;;;2.00;2.00;;;;;40.39;17.99;98605.09;6183756;28;96858;-66
2023/11/07 10:17:04;;;;;;;;;2.00;2.00;;;;;40.20;18.43;98598.13;6193098;28;96285;-67
2023/11/07 10:20:11;;;;;;;;;2.00;1.00;;;;;39.86;17.97;98601.00;6193060;28;96185;-67
2023/11/07 10:23:16;;;;;;;;;2.00;2.00;;;;;39.90;18.42;98603.78;6192971;28;96264;-66
2023/11/07 10:26:19;;;;;;;;;2.00;2.00;;;;;39.83;18.86;98597.00;6192657;28;96198;-67
2023/11/07 10:29:30;;;;;;;;;1.00;1.00;;;;;39.81;18.67;98598.66;6177477;28;96669;-67
2023/11/07 10:32:45;;;;;;;;;1.50;1.00;;;;;39.92;18.34;98598.50;6171043;28;98433;-67
2023/11/07 10:35:53;;;;;;;;;1.20;1.20;;;;;39.74;19.10;98595.88;6191570;28;96479;-67
2023/11/07 10:38:59;;;;;;;;;2.60;2.60;;;;;39.46;18.44;98591.41;6191371;28;96329;-67
2023/11/07 10:42:17;;;;;;;;;2.00;2.00;;;;;39.33;18.78;98588.38;6191127;28;96379;-66
2023/11/07 10:45:22;;;;;;;;;2.00;2.00;;;;;39.21;19.38;98596.53;6190634;28;96602;-67
2023/11/07 10:48:26;;;;;;;;;2.00;2.00;;;;;39.19;18.81;98584.88;6191501;28;96274;-66
2023/11/07 10:51:32;;;;;;;;;2.00;2.00;;;;;39.18;19.11;98583.28;6170683;28;98443;-67
2023/11/07 10:54:38;;;;;;;;;3.00;3.00;;;;;39.00;18.76;98589.09;6189585;28;96251;-66
2023/11/07 10:57:49;;;;;;;;;2.00;2.00;;;;;38.64;19.01;98585.00;6188599;28;96457;-66
2023/11/07 11:00:53;;;;;;;;;3.00;2.75;;;;;38.41;19.13;98574.31;6189520;28;97156;-66
2023/11/07 11:04:01;;;;;;;;;2.00;2.00;;;;;38.31;19.24;98575.19;6189615;28;96590;-65
2023/11/07 11:07:06;;;;;;;;;2.20;2.20;;;;;38.06;19.20;98576.19;6192132;28;96835;-65
2023/11/07 11:10:13;;;;;;;;;3.00;2.40;;;;;38.07;20.00;98562.91;6191271;28;96427;-65
2023/11/07 11:13:17;;;;;;;;;2.00;1.00;;;;;38.13;19.49;98572.50;6192461;28;96558;-66
2023/11/07 11:16:22;;;;;;;;;1.25;1.25;;;;;38.16;19.98;98580.13;6194841;28;96350;-65
2023/11/07 11:19:34;;;;;;;;;1.20;1.20;;;;;38.11;19.78;98574.94;6202157;28;96668;-66
2023/11/07 11:22:47;;;;;;;;;1.00;1.00;;;;;37.91;19.58;98571.03;6172861;28;96576;-66
2023/11/07 11:26:13;;;;;;;;;2.00;1.00;;;;;37.70;19.46;98571.94;6190769;28;96422;-67
2023/11/07 11:29:23;;;;;;;;;2.00;2.00;;;;;37.26;20.11;98564.06;6173367;28;96330;-66
2023/11/07 11:32:29;;;;;;;;;2.00;2.00;;;;;36.87;19.47;98566.97;6190674;28;96480;-66
2023/11/07 11:35:35;;;;;;;;;1.00;1.00;;;;;36.89;19.46;98551.31;6173086;28;96706;-67
2023/11/07 11:38:42;;;;;;;;;2.00;2.00;;;;;36.56;20.02;98557.34;6172478;28;98515;-66
2023/11/07 11:41:56;;;;;;;;;2.00;2.00;;;;;36.57;19.80;98555.34;6197448;28;96498;-66
2023/11/07 11:45:26;;;;;;;;;1.00;1.00;;;;;36.47;19.25;98542.91;6208920;28;98443;-66
2023/11/07 11:49:07;;;;;;;;;1.00;0.20;;;;;36.41;19.56;98550.13;6187860;28;98388;-66
2023/11/07 11:52:34;;;;;;;;;1.00;1.00;;;;;36.46;18.98;98552.53;6200080;28;96494;-66
2023/11/07 11:56:07;;;;;;;;;2.00;1.40;;;;;36.53;19.37;98537.69;6212596;28;96353;-66
2023/11/07 11:59:11;;;;;;;;;1.00;1.00;;;;;36.34;19.02;98536.09;6180632;28;99413;-65
2023/11/07 12:02:35;;;;;;;;;1.00;1.00;;;;;36.32;19.16;98541.31;6204492;28;96343;-65
2023/11/07 12:05:39;;;;;;;;;0.60;0.00;;;;;36.26;19.37;98540.13;6202424;28;96332;-65
2023/11/07 12:08:43;;;;;;;;;1.00;0.50;;;;;36.22;19.34;98542.09;6214195;28;96586;-65
2023/11/07 12:11:47;;;;;;;;;1.00;1.00;;;;;35.97;19.61;98547.69;6205554;28;96629;-65
2023/11/07 12:14:54;;;;;;;;;0.00;0.00;;;;;35.62;19.19;98546.38;6213512;28;96338;-65
2023/11/07 12:17:58;;;;;;;;;1.00;1.00;;;;;34.52;19.82;98539.34;6198235;28;96727;-65
2023/11/07 12:21:04;;;;;;;;;1.00;1.00;;;;;33.75;20.61;98534.66;6215083;28;96447;-65
2023/11/07 12:24:09;;;;;;;;;1.00;1.00;;;;;32.87;21.93;98534.31;6214888;28;96476;-64
2023/11/07 12:27:20;;;;;;;;;1.00;1.00;;;;;32.00;23.31;98521.34;6215318;28;96379;-65
2023/11/07 12:30:24;;;;;;;;;2.00;1.00;;;;;31.40;23.74;98531.31;6211284;28;96381;-64
2023/11/07 12:33:40;;;;;;;;;0.00;0.00;;;;;30.95;24.00;98529.97;6184266;28;96381;-64
2023/11/07 12:36:44;;;;;;;;;2.00;2.00;;;;;30.46;24.95;98526.06;6195739;28;96645;-63
2023/11/07 12:39:49;;;;;;;;;1.00;1.00;;;;;29.99;25.32;98512.97;6214079;28;96481;-63
2023/11/07 12:42:53;;;;;;;;;1.00;1.00;;;;;29.59;25.98;98521.44;6212609;28;96317;-62
2023/11/07 12:45:58;;;;;;;;;2.20;1.00;;;;;29.14;26.57;98516.16;6199268;28;96794;-62
2023/11/07 12:49:02;;;;;;;;;1.00;1.00;;;;;28.93;27.29;98525.84;6213517;28;96866;-62
2023/11/07 12:52:11;;;;;;;;;2.00;1.00;;;;;28.80;27.30;98522.28;6212900;28;96357;-62
2023/11/07 12:55:21;;;;;;;;;0.00;0.00;;;;;28.61;28.51;98530.38;6213571;28;96920;-62
2023/11/07 12:58:28;;;;;;;;;2.40;2.00;;;;;28.43;28.47;98532.59;6193071;28;96761;-63
2023/11/07 13:01:32;;;;;;;;;2.00;1.00;;;;;28.17;29.36;98527.41;6172906;28;96664;-62
2023/11/07 13:04:36;;;;;;;;;2.00;2.00;;;;;28.07;30.00;98532.56;6198433;28;96460;-62
2023/11/07 13:07:39;;;;;;;;;1.25;1.25;;;;;28.00;29.72;98531.16;6211446;28;96364;-63
2023/11/07 13:10:42;;;;;;;;;2.00;1.00;;;;;27.80;30.00;98525.72;6211733;28;96343;-62
2023/11/07 13:13:46;;;;;;;;;2.80;2.00;;;;;27.63;30.90;98521.16;6213646;28;96522;-62
2023/11/07 13:16:51;;;;;;;;;1.60;1.60;;;;;27.31;30.73;98505.38;6211291;28;97022;-62
2023/11/07 13:19:55;;;;;;;;;2.00;2.00;;;;;27.19;31.64;98527.44;6208463;28;96675;-63
2023/11/07 13:22:58;;;;;;;;;2.00;2.00;;;;;27.08;32.37;98516.78;6180366;28;98405;-64
2023/11/07 13:26:01;;;;;;;;;3.00;2.00;;;;;26.88;33.52;98530.66;6209640;28;96977;-62
2023/11/07 13:29:04;;;;;;;;;1.00;1.00;;;;;26.67;33.24;98525.06;6189225;28;96466;-63
2023/11/07 13:32:09;;;;;;;;;0.80;0.20;;;;;26.41;34.02;98518.88;6187967;28;98477;-62
2023/11/07 13:35:13;;;;;;;;;1.00;1.00;;;;;26.20;34.11;98518.81;6193504;28;99813;-63
2023/11/07 13:38:17;;;;;;;;;1.40;1.40;;;;;25.93;35.15;98516.50;6194472;28;96398;-62
2023/11/07 13:41:20;;;;;;;;;1.00;1.00;;;;;25.75;35.15;98524.88;6206273;28;96850;-62
2023/11/07 13:44:23;;;;;;;;;1.00;1.00;;;;;25.58;36.58;98518.56;6208433;28;96320;-65
2023/11/07 13:47:28;;;;;;;;;2.00;1.80;;;;;25.49;36.48;98517.75;6210575;28;96514;-64
2023/11/07 13:50:32;;;;;;;;;2.00;2.00;;;;;25.33;37.44;98506.41;6208201;28;97408;-64
2023/11/07 13:53:35;;;;;;;;;1.00;1.00;;;;;25.09;38.40;98514.38;6207962;28;97068;-65
2023/11/07 13:56:42;;;;;;;;;3.00;2.00;;;;;24.69;39.37;98513.69;6210414;28;97578;-64
2023/11/07 13:59:47;;;;;;;;;1.00;1.00;;;;;24.37;41.20;98513.00;6193931;28;96347;-64
2023/11/07 14:02:53;;;;;;;;;2.40;2.00;;;;;24.13;42.35;98518.91;6203461;28;96271;-65
2023/11/07 14:05:56;;;;;;;;;1.80;1.20;;;;;23.84;43.51;98520.59;6212812;28;97328;-64
2023/11/07 14:08:59;;;;;;;;;2.00;2.00;;;;;23.44;46.13;98515.00;6184200;28;98401;-63
2023/11/07 14:12:02;;;;;;;;;2.00;2.00;;;;;23.00;48.59;98515.81;6212894;28;96402;-64
2023/11/07 14:15:08;;;;;;;;;1.00;1.00;;;;;22.56;50.51;98521.22;6210239;28;98551;-64
2023/11/07 14:18:17;;;;;;;;;1.50;1.50;;;;;22.14;51.82;98514.16;6194719;28;96282;-63
2023/11/07 14:21:29;;;;;;;;;1.40;1.40;;;;;21.79;52.90;98516.47;6212046;28;97501;-64
2023/11/07 14:24:38;;;;;;;;;1.00;1.00;;;;;21.43;56.22;98518.22;6193646;28;96286;-63